Time;durP1;ratioP1;P1;durP2;ratioP2;P2;SDS_P1;SDS_P2;PMS_P1;PMS_P2;Temp;Humidity;BMP_temperature;BMP_pressure;BME280_temperature;BME280_humidity;BME280_pressure;Samples;Min_cycle;Max_cycle;Signal;HPM_P1;HPM_P2
2022/12/18 00:02:01;;;;;;;0.00;0.00;;;;;;;-0.67;89.23;100781.78;6205795;22;20035;-75
2022/12/18 00:04:58;;;;;;;0.10;0.10;;;;;;;-0.51;89.23;100804.97;6266615;22;19999;-76
2022/12/18 00:14:58;;;;;;;0.00;0.00;;;;;;;-0.58;90.60;100790.59;6118063;23;20048;-75
2022/12/18 00:17:44;;;;;;;0.00;0.00;;;;;;;-0.60;91.18;100781.88;6149709;23;20005;-75
2022/12/18 00:20:21;;;;;;;0.10;0.10;;;;;;;-0.63;90.74;100775.00;6157314;23;20016;-73
2022/12/18 00:23:07;;;;;;;0.00;0.00;;;;;;;-0.71;91.55;100745.56;6133568;23;20024;-73
2022/12/18 00:25:55;;;;;;;0.10;0.10;;;;;;;-0.74;90.64;100743.25;6116035;23;20021;-73
2022/12/18 00:28:20;;;;;;;0.00;0.00;;;;;;;-0.75;90.47;100744.25;6144503;23;20012;-75
2022/12/18 00:31:32;;;;;;;0.00;0.00;;;;;;;-0.82;90.86;100724.53;6163929;22;20011;-75
2022/12/18 00:35:09;;;;;;;0.10;0.10;;;;;;;-0.96;91.69;100710.91;6266030;22;20373;-75
2022/12/18 00:37:28;;;;;;;0.00;0.00;;;;;;;-0.85;91.38;100728.41;6262773;22;20007;-76
2022/12/18 00:40:01;;;;;;;0.00;0.00;;;;;;;-0.68;91.61;100742.50;6253893;22;20012;-75
2022/12/18 00:45:13;;;;;;;0.00;0.00;;;;;;;-0.73;91.53;100721.59;6220214;23;20072;-74
2022/12/18 00:48:42;;;;;;;0.10;0.10;;;;;;;-0.57;91.18;100739.38;6236624;23;20065;-76
2022/12/18 00:50:53;;;;;;;0.00;0.00;;;;;;;-0.60;91.55;100737.06;6199509;23;20000;-75
2022/12/18 00:53:19;;;;;;;0.00;0.00;;;;;;;-0.55;91.99;100729.28;6190966;23;20008;-75
2022/12/18 00:55:47;;;;;;;0.05;0.05;;;;;;;-0.60;91.34;100714.72;6213280;23;20008;-73
2022/12/18 00:58:47;;;;;;;;;;;;;;;;;;;;;
2022/12/18 01:01:16;;;;;;;0.10;0.10;;;;;;;-0.76;91.57;100689.72;6234461;23;20087;-74
2022/12/18 01:03:42;;;;;;;0.08;0.08;;;;;;;-0.75;92.63;100679.81;6234102;23;20497;-76
2022/12/18 01:06:09;;;;;;;0.00;0.00;;;;;;;-0.61;91.49;100687.03;6207447;23;20008;-73
2022/12/18 01:08:35;;;;;;;0.10;0.10;;;;;;;-0.61;91.91;100676.28;6207855;22;20007;-72
2022/12/18 01:11:06;;;;;;;0.00;0.00;;;;;;;-0.45;91.49;100686.00;6210007;23;19996;-74
2022/12/18 01:13:31;;;;;;;0.10;0.10;;;;;;;-0.32;90.36;100703.31;6206896;23;19996;-76
2022/12/18 01:15:57;;;;;;;0.00;0.00;;;;;;;-0.37;90.01;100704.69;6233353;23;20007;-75
2022/12/18 01:18:22;;;;;;;0.00;0.00;;;;;;;-0.63;91.25;100672.94;6206633;23;20023;-75
2022/12/18 01:20:48;;;;;;;0.00;0.00;;;;;;;-0.62;90.40;100685.34;6235701;23;20079;-74
2022/12/18 01:23:15;;;;;;;0.00;0.00;;;;;;;-0.48;90.99;100712.41;6179615;23;20031;-75
2022/12/18 01:25:41;;;;;;;0.00;0.00;;;;;;;-0.51;90.55;100707.41;6208443;23;20004;-74
2022/12/18 01:28:06;;;;;;;0.00;0.00;;;;;;;-0.64;89.90;100691.94;6210207;23;20443;-74
2022/12/18 01:30:32;;;;;;;0.00;0.00;;;;;;;-0.74;90.08;100692.22;6180465;23;20064;-75
2022/12/18 01:32:57;;;;;;;0.00;0.00;;;;;;;-0.69;90.46;100716.66;6237192;23;20008;-75
2022/12/18 01:35:22;;;;;;;0.10;0.10;;;;;;;-0.71;90.79;100713.34;6203967;23;20053;-73
2022/12/18 01:37:48;;;;;;;0.10;0.10;;;;;;;-0.74;90.53;100713.72;6183866;22;20012;-75
2022/12/18 01:40:13;;;;;;;0.00;0.00;;;;;;;-0.79;90.80;100700.84;6203453;22;20055;-74
2022/12/18 01:42:39;;;;;;;0.10;0.10;;;;;;;-0.71;90.57;100710.66;6205629;23;20004;-74
2022/12/18 01:45:13;;;;;;;0.00;0.00;;;;;;;-0.62;90.08;100722.97;6206232;22;20033;-75
2022/12/18 01:47:44;;;;;;;0.10;0.10;;;;;;;-0.48;90.48;100728.53;6201952;23;20087;-74
2022/12/18 01:50:21;;;;;;;0.00;0.00;;;;;;;-0.45;89.31;100726.31;6205661;22;20031;-74
2022/12/18 01:52:53;;;;;;;0.00;0.00;;;;;;;-0.34;90.13;100718.78;6202463;23;20004;-75
2022/12/18 01:55:23;;;;;;;0.00;0.00;;;;;;;-0.32;90.39;100714.91;6230068;23;20060;-74
2022/12/18 01:57:52;;;;;;;0.00;0.00;;;;;;;-0.23;89.43;100724.53;6203774;23;20366;-74
2022/12/18 02:00:20;;;;;;;0.10;0.10;;;;;;;-0.21;90.04;100717.09;6234436;23;20000;-74
2022/12/18 02:02:46;;;;;;;0.00;0.00;;;;;;;-0.09;89.36;100719.31;6202981;23;20000;-75
2022/12/18 02:05:17;;;;;;;0.10;0.10;;;;;;;-0.05;88.87;100712.53;6204199;22;20010;-74
2022/12/18 02:07:45;;;;;;;0.10;0.10;;;;;;;-0.04;88.79;100714.22;6232492;23;20008;-74
2022/12/18 02:10:34;;;;;;;0.00;0.00;;;;;;;-0.15;89.14;100690.50;6202938;23;20012;-75
2022/12/18 02:13:09;;;;;;;0.00;0.00;;;;;;;-0.13;89.28;100683.06;6202517;22;20014;-74
2022/12/18 02:15:47;;;;;;;0.00;0.00;;;;;;;-0.11;89.44;100684.53;6205143;23;20004;-74
2022/12/18 02:18:21;;;;;;;0.00;0.00;;;;;;;-0.16;89.16;100683.44;6200203;22;20008;-74
2022/12/18 02:20:59;;;;;;;0.05;0.05;;;;;;;-0.17;89.00;100681.81;6233462;23;20008;-73
2022/12/18 02:23:33;;;;;;;0.00;0.00;;;;;;;-0.24;88.77;100676.34;6227485;23;20008;-74
2022/12/18 02:26:19;;;;;;;0.10;0.10;;;;;;;-0.28;89.32;100670.47;6233249;23;20045;-74
2022/12/18 02:28:51;;;;;;;0.00;0.00;;;;;;;-0.29;89.26;100679.59;6204095;23;19996;-75
2022/12/18 02:31:24;;;;;;;0.00;0.00;;;;;;;-0.21;89.38;100676.78;6206473;22;20007;-75
2022/12/18 02:33:53;;;;;;;0.00;0.00;;;;;;;-0.09;88.73;100674.47;6229637;23;20397;-76
2022/12/18 02:36:21;;;;;;;0.10;0.10;;;;;;;0.12;88.93;100675.50;6233987;23;20330;-75
2022/12/18 02:38:48;;;;;;;0.00;0.00;;;;;;;0.25;88.79;100670.25;6230767;22;20313;-74
2022/12/18 02:41:15;;;;;;;0.10;0.10;;;;;;;0.33;87.87;100671.97;6239411;22;20015;-76
2022/12/18 02:43:49;;;;;;;0.00;0.00;;;;;;;0.24;87.93;100660.50;6235547;22;20007;-74
2022/12/18 02:46:31;;;;;;;0.00;0.00;;;;;;;0.30;87.79;100661.59;6242258;22;19996;-75
2022/12/18 02:49:21;;;;;;;0.10;0.10;;;;;;;0.40;87.05;100667.47;6263946;22;20325;-74
2022/12/18 02:51:58;;;;;;;0.00;0.00;;;;;;;0.39;87.14;100660.44;6237705;22;20004;-75
2022/12/18 02:55:03;;;;;;;0.05;0.05;;;;;;;0.41;87.48;100661.09;6241032;22;19999;-74
2022/12/18 02:57:36;;;;;;;0.10;0.10;;;;;;;0.56;87.39;100665.56;6211819;22;20004;-76
2022/12/18 03:00:10;;;;;;;0.00;0.00;;;;;;;0.62;86.40;100644.06;6240124;22;20049;-75
2022/12/18 03:02:47;;;;;;;0.00;0.00;;;;;;;0.71;86.95;100647.44;6239635;22;20091;-74
2022/12/18 03:05:19;;;;;;;0.00;0.00;;;;;;;0.73;86.58;100639.19;6236765;22;20090;-74
2022/12/18 03:08:11;;;;;;;0.05;0.05;;;;;;;0.91;86.23;100649.47;6268365;22;20364;-75
2022/12/18 03:10:49;;;;;;;0.00;0.00;;;;;;;0.97;85.97;100640.59;6238747;22;20425;-74
2022/12/18 03:13:31;;;;;;;0.00;0.00;;;;;;;0.98;85.10;100644.94;6236606;22;20011;-75
2022/12/18 03:15:58;;;;;;;0.00;0.00;;;;;;;1.06;85.79;100650.19;6267725;22;20010;-76
2022/12/18 03:18:37;;;;;;;0.00;0.00;;;;;;;1.15;84.88;100648.16;6262824;22;20003;-75
2022/12/18 03:21:06;;;;;;;0.00;0.00;;;;;;;1.17;84.56;100633.47;6267752;22;19999;-75
2022/12/18 03:23:40;;;;;;;0.00;0.00;;;;;;;1.25;84.78;100637.03;6233311;22;19999;-75
2022/12/18 03:26:13;;;;;;;0.10;0.10;;;;;;;1.25;84.02;100627.06;6267735;22;20002;-75
2022/12/18 03:28:44;;;;;;;0.00;0.00;;;;;;;1.30;84.52;100634.53;6264966;22;20007;-75
2022/12/18 03:31:12;;;;;;;0.00;0.00;;;;;;;1.27;83.65;100624.19;6240778;22;19992;-75
2022/12/18 03:33:44;;;;;;;0.00;0.00;;;;;;;1.36;84.12;100631.09;6266427;22;20027;-77
2022/12/18 03:36:09;;;;;;;0.00;0.00;;;;;;;1.33;83.82;100623.38;6241292;22;20040;-74
2022/12/18 03:38:36;;;;;;;0.10;0.10;;;;;;;1.42;83.54;100632.97;6264548;22;20004;-75
2022/12/18 03:41:14;;;;;;;0.00;0.00;;;;;;;1.49;83.57;100635.66;6237742;22;20036;-75
2022/12/18 03:43:39;;;;;;;0.00;0.00;;;;;;;1.53;82.75;100634.25;6240239;22;20086;-74
2022/12/18 03:46:24;;;;;;;0.05;0.05;;;;;;;1.52;83.26;100627.19;6235109;22;20058;-74
2022/12/18 03:48:56;;;;;;;0.00;0.00;;;;;;;1.63;82.34;100620.41;6265739;22;20031;-74
2022/12/18 03:51:33;;;;;;;0.00;0.00;;;;;;;1.68;82.66;100631.38;6237275;22;19995;-74
2022/12/18 03:54:01;;;;;;;0.00;0.00;;;;;;;1.73;82.04;100634.31;6240004;22;20341;-75
2022/12/18 03:56:32;;;;;;;0.00;0.00;;;;;;;1.76;82.26;100623.13;6239292;22;20012;-75
2022/12/18 03:59:00;;;;;;;0.10;0.10;;;;;;;1.85;81.72;100611.13;6265803;22;20076;-74
2022/12/18 04:01:33;;;;;;;0.00;0.00;;;;;;;1.94;81.25;100616.31;6263248;22;20083;-74
2022/12/18 04:04:03;;;;;;;0.00;0.00;;;;;;;1.95;81.79;100605.34;6240697;22;20007;-74
2022/12/18 04:06:30;;;;;;;0.00;0.00;;;;;;;2.00;80.90;100585.84;6270918;22;19995;-73
2022/12/18 04:08:57;;;;;;;0.00;0.00;;;;;;;2.07;80.48;100587.53;6276931;22;20027;-74
2022/12/18 04:11:23;;;;;;;0.00;0.00;;;;;;;2.08;80.46;100585.66;6215989;22;20000;-74
2022/12/18 04:13:48;;;;;;;0.00;0.00;;;;;;;2.05;80.52;100584.19;6214154;22;20011;-74
2022/12/18 04:16:13;;;;;;;0.00;0.00;;;;;;;2.03;80.15;100580.03;6238768;22;20426;-75
2022/12/18 04:18:39;;;;;;;0.00;0.00;;;;;;;2.05;80.32;100580.66;6263870;22;20032;-75
2022/12/18 04:21:04;;;;;;;0.00;0.00;;;;;;;2.05;80.54;100567.19;6213373;22;20012;-75
2022/12/18 04:23:30;;;;;;;0.00;0.00;;;;;;;2.05;80.18;100559.09;6235808;22;20007;-75
2022/12/18 04:25:55;;;;;;;0.10;0.10;;;;;;;2.11;80.52;100555.56;6267756;22;20012;-76
2022/12/18 04:28:21;;;;;;;0.00;0.00;;;;;;;2.12;79.70;100557.22;6211134;22;20042;-74
2022/12/18 04:30:46;;;;;;;0.10;0.10;;;;;;;2.13;79.68;100539.97;6240512;22;20004;-75
2022/12/18 04:33:13;;;;;;;0.00;0.00;;;;;;;2.14;79.55;100538.94;6216109;22;20019;-74
2022/12/18 04:35:39;;;;;;;0.00;0.00;;;;;;;2.12;79.53;100540.19;6262890;22;20035;-73
2022/12/18 04:38:08;;;;;;;0.05;0.05;;;;;;;2.07;79.37;100538.13;6215818;22;20007;-74
2022/12/18 04:40:34;;;;;;;0.10;0.10;;;;;;;2.06;79.45;100534.59;6231669;22;20375;-74
2022/12/18 04:43:00;;;;;;;0.00;0.00;;;;;;;2.11;80.16;100533.97;6206877;23;20772;-75
2022/12/18 04:45:25;;;;;;;0.00;0.00;;;;;;;2.12;79.85;100527.53;6206489;23;20008;-75
2022/12/18 04:47:51;;;;;;;0.10;0.10;;;;;;;2.11;78.80;100533.97;6234087;23;20016;-74
2022/12/18 04:50:16;;;;;;;0.00;0.00;;;;;;;2.09;78.87;100538.75;6206898;23;20008;-75
2022/12/18 04:52:41;;;;;;;0.00;0.00;;;;;;;2.04;78.83;100527.75;6182581;23;20004;-76
2022/12/18 04:55:07;;;;;;;0.00;0.00;;;;;;;2.02;79.06;100524.44;6233113;23;20347;-75
2022/12/18 04:57:33;;;;;;;0.00;0.00;;;;;;;1.91;79.44;100497.03;6232032;22;19996;-75
2022/12/18 04:59:58;;;;;;;0.00;0.00;;;;;;;2.02;79.39;100524.44;6183340;23;20087;-74
2022/12/18 05:02:23;;;;;;;0.03;0.03;;;;;;;1.96;78.85;100501.81;6234224;23;20052;-74
2022/12/18 05:04:49;;;;;;;0.00;0.00;;;;;;;1.96;78.62;100499.13;6205622;23;20336;-74
2022/12/18 05:07:14;;;;;;;0.00;0.00;;;;;;;2.00;78.82;100499.50;6186067;23;20496;-75
2022/12/18 05:09:40;;;;;;;0.00;0.00;;;;;;;1.96;78.84;100485.63;6206203;23;20008;-75
2022/12/18 05:12:05;;;;;;;0.00;0.00;;;;;;;2.05;78.86;100491.66;6233646;23;20083;-74
2022/12/18 05:14:31;;;;;;;0.00;0.00;;;;;;;2.05;78.68;100484.38;6234991;23;20022;-74
2022/12/18 05:16:56;;;;;;;0.00;0.00;;;;;;;2.23;78.39;100486.44;6206281;23;20092;-75
2022/12/18 05:19:21;;;;;;;0.00;0.00;;;;;;;2.27;78.19;100468.78;6211554;23;20069;-75
2022/12/18 05:21:47;;;;;;;0.10;0.10;;;;;;;2.37;78.08;100481.03;6178867;23;20008;-75
2022/12/18 05:24:12;;;;;;;0.05;0.05;;;;;;;2.34;77.83;100473.34;6234990;23;20046;-75
2022/12/18 05:26:38;;;;;;;0.00;0.00;;;;;;;2.33;77.45;100463.59;6230873;23;20067;-75
2022/12/18 05:29:04;;;;;;;0.00;0.00;;;;;;;2.34;77.76;100457.16;6208913;23;20004;-75
2022/12/18 05:31:29;;;;;;;0.05;0.05;;;;;;;2.31;77.83;100452.16;6211875;23;20015;-76
2022/12/18 05:33:54;;;;;;;0.10;0.10;;;;;;;2.34;77.80;100435.56;6181484;23;20334;-76
2022/12/18 05:36:20;;;;;;;0.00;0.00;;;;;;;2.38;78.07;100442.19;6211828;23;20079;-76
2022/12/18 05:38:45;;;;;;;0.00;0.00;;;;;;;2.38;78.09;100437.63;6229730;23;20020;-75
2022/12/18 05:41:11;;;;;;;0.00;0.00;;;;;;;2.36;77.65;100422.69;6210946;22;20084;-75
2022/12/18 05:43:38;;;;;;;0.05;0.05;;;;;;;2.42;77.78;100432.63;6204466;23;20458;-75
2022/12/18 05:46:11;;;;;;;0.00;0.00;;;;;;;2.45;77.91;100418.69;6208435;23;20438;-75
2022/12/18 05:48:36;;;;;;;0.10;0.10;;;;;;;2.50;77.84;100429.72;6233660;23;20000;-74
2022/12/18 05:51:08;;;;;;;0.03;0.03;;;;;;;2.57;78.04;100426.97;6233463;23;20046;-74
2022/12/18 05:53:36;;;;;;;0.10;0.10;;;;;;;2.60;77.54;100416.59;6235266;23;19999;-74
2022/12/18 05:56:04;;;;;;;0.08;0.08;;;;;;;2.69;77.59;100422.56;6207345;23;20015;-73
2022/12/18 05:58:30;;;;;;;0.00;0.00;;;;;;;2.81;77.26;100420.03;6234902;23;20091;-75
2022/12/18 06:00:56;;;;;;;0.00;0.00;;;;;;;2.77;76.90;100408.00;6231624;23;20032;-74
2022/12/18 06:03:22;;;;;;;0.00;0.00;;;;;;;2.76;76.82;100406.31;6233813;23;20644;-74
2022/12/18 06:05:47;;;;;;;0.00;0.00;;;;;;;2.82;76.66;100405.50;6233618;23;20026;-76
2022/12/18 06:08:13;;;;;;;0.00;0.00;;;;;;;2.86;76.61;100412.13;6179316;23;20020;-76
2022/12/18 06:10:39;;;;;;;0.00;0.00;;;;;;;2.86;76.76;100409.41;6236489;23;20015;-76
2022/12/18 06:13:12;;;;;;;0.10;0.10;;;;;;;2.89;76.71;100411.69;6232996;22;20034;-75
2022/12/18 06:15:38;;;;;;;0.00;0.00;;;;;;;2.96;77.01;100409.78;6209573;23;20338;-75
2022/12/18 06:18:04;;;;;;;0.00;0.00;;;;;;;2.97;76.65;100419.53;6230163;23;20004;-75
2022/12/18 06:20:29;;;;;;;0.10;0.10;;;;;;;2.99;76.37;100410.38;6210947;23;20103;-76
2022/12/18 06:22:54;;;;;;;0.00;0.00;;;;;;;3.03;76.52;100403.50;6210713;23;20430;-77
2022/12/18 06:25:20;;;;;;;0.00;0.00;;;;;;;3.05;77.23;100402.25;6180519;23;20108;-75
2022/12/18 06:27:47;;;;;;;0.10;0.10;;;;;;;3.11;76.80;100403.22;6210404;23;20016;-75
2022/12/18 06:30:13;;;;;;;0.00;0.00;;;;;;;2.93;76.49;100372.38;6233348;22;20083;-75
2022/12/18 06:32:39;;;;;;;0.00;0.00;;;;;;;3.08;76.83;100387.47;6236623;22;20006;-75
2022/12/18 06:35:05;;;;;;;0.00;0.00;;;;;;;3.06;76.30;100378.75;6231312;23;20422;-74
2022/12/18 06:37:31;;;;;;;0.00;0.00;;;;;;;3.16;76.89;100383.69;6234216;23;20029;-75
2022/12/18 06:39:58;;;;;;;0.00;0.00;;;;;;;3.23;77.15;100395.28;6207191;22;20024;-74
2022/12/18 06:42:25;;;;;;;0.00;0.00;;;;;;;3.20;76.24;100395.69;6232867;23;20376;-75
2022/12/18 06:44:53;;;;;;;0.00;0.00;;;;;;;3.16;76.65;100400.72;6232351;23;20012;-74
2022/12/18 06:47:28;;;;;;;0.00;0.00;;;;;;;3.17;76.92;100393.44;6233127;22;20000;-74
2022/12/18 06:49:53;;;;;;;;;;;;;;;3.23;76.60;100404.22;6212263;23;20358;-73
2022/12/18 06:52:18;;;;;;;0.00;0.00;;;;;;;3.08;77.39;100376.66;6230555;23;19907;-75
2022/12/18 06:54:44;;;;;;;0.00;0.00;;;;;;;3.13;77.09;100380.34;6234504;23;20015;-75
2022/12/18 06:57:09;;;;;;;0.00;0.00;;;;;;;3.29;76.84;100400.63;6234533;22;20004;-74
2022/12/18 06:59:37;;;;;;;0.00;0.00;;;;;;;3.26;76.91;100417.28;6233303;23;20315;-74
2022/12/18 07:02:02;;;;;;;0.00;0.00;;;;;;;3.21;76.70;100411.69;6208031;23;20039;-73
2022/12/18 07:04:31;;;;;;;0.00;0.00;;;;;;;3.04;76.86;100402.44;6231359;23;20004;-75
2022/12/18 07:06:57;;;;;;;0.00;0.00;;;;;;;3.02;77.79;100410.75;6234115;23;20004;-73
2022/12/18 07:09:23;;;;;;;0.00;0.00;;;;;;;3.14;77.71;100403.66;6233597;23;20019;-74
2022/12/18 07:11:48;;;;;;;0.05;0.05;;;;;;;3.04;77.76;100378.13;6225465;23;20535;-73
2022/12/18 07:14:14;;;;;;;0.00;0.00;;;;;;;3.13;77.32;100406.56;6235920;23;20004;-73
2022/12/18 07:16:50;;;;;;;0.00;0.00;;;;;;;3.16;77.56;100427.75;6231485;22;20016;-73
2022/12/18 07:19:16;;;;;;;0.00;0.00;;;;;;;2.97;77.11;100392.50;6236896;23;20019;-75
2022/12/18 07:21:43;;;;;;;0.00;0.00;;;;;;;2.94;77.49;100379.44;6232733;22;20001;-75
2022/12/18 07:24:13;;;;;;;0.10;0.10;;;;;;;2.99;78.04;100362.56;6235146;23;20731;-75
2022/12/18 07:26:39;;;;;;;0.00;0.00;;;;;;;2.96;77.81;100346.81;6230222;23;20019;-73
2022/12/18 07:29:04;;;;;;;0.00;0.00;;;;;;;3.17;77.38;100391.56;6237599;22;20008;-74
2022/12/18 07:31:29;;;;;;;0.00;0.00;;;;;;;3.09;77.66;100381.03;6235956;22;20772;-73
2022/12/18 07:33:58;;;;;;;0.05;0.05;;;;;;;3.06;77.56;100378.75;6230749;23;20008;-73
2022/12/18 07:36:37;;;;;;;0.00;0.00;;;;;;;3.05;77.36;100363.59;6236656;23;20011;-75
2022/12/18 07:39:03;;;;;;;0.00;0.00;;;;;;;3.05;77.84;100344.66;6224151;22;20119;-75
2022/12/18 07:41:33;;;;;;;0.00;0.00;;;;;;;3.20;77.29;100360.56;6267484;22;20043;-75
2022/12/18 07:43:59;;;;;;;0.00;0.00;;;;;;;3.19;77.54;100356.22;6236007;22;20422;-74
2022/12/18 07:46:24;;;;;;;0.00;0.00;;;;;;;3.34;77.62;100380.22;6265836;22;20090;-74
2022/12/18 07:48:49;;;;;;;0.00;0.00;;;;;;;3.44;77.45;100380.56;6263889;22;20442;-74
2022/12/18 07:51:15;;;;;;;0.00;0.00;;;;;;;3.28;76.95;100361.13;6237946;22;20048;-74
2022/12/18 07:53:41;;;;;;;0.10;0.10;;;;;;;3.38;77.21;100393.09;6264249;22;20043;-73
2022/12/18 07:56:09;;;;;;;0.00;0.00;;;;;;;3.30;77.00;100391.47;6211990;22;20481;-73
2022/12/18 07:58:35;;;;;;;0.10;0.10;;;;;;;3.38;77.33;100398.50;6240297;22;20030;-73
2022/12/18 08:01:11;;;;;;;0.00;0.00;;;;;;;3.31;77.03;100382.34;6234210;22;20473;-73
2022/12/18 08:03:39;;;;;;;0.10;0.10;;;;;;;3.39;77.38;100393.91;6265935;22;20010;-74
2022/12/18 08:06:07;;;;;;;0.00;0.00;;;;;;;3.24;76.71;100381.56;6235128;22;20003;-73
2022/12/18 08:08:34;;;;;;;0.00;0.00;;;;;;;3.37;77.84;100396.00;6241240;22;20047;-74
2022/12/18 08:11:00;;;;;;;0.00;0.00;;;;;;;3.37;77.03;100413.03;6239975;22;20007;-74
2022/12/18 08:13:26;;;;;;;0.00;0.00;;;;;;;3.38;77.53;100414.72;6210998;22;20018;-74
2022/12/18 08:16:05;;;;;;;0.00;0.00;;;;;;;3.35;77.28;100417.84;6265467;22;20010;-74
2022/12/18 08:18:36;;;;;;;0.00;0.00;;;;;;;3.22;77.77;100423.34;6233533;22;20031;-73
2022/12/18 08:21:14;;;;;;;0.00;0.00;;;;;;;3.05;78.19;100406.81;6216407;22;20028;-74
2022/12/18 08:23:40;;;;;;;0.00;0.00;;;;;;;2.96;78.89;100411.63;6262064;22;20010;-73
2022/12/18 08:26:06;;;;;;;0.03;0.03;;;;;;;2.99;79.37;100410.38;6240016;22;20027;-73
2022/12/18 08:28:32;;;;;;;0.00;0.00;;;;;;;2.96;79.70;100415.19;6234387;22;20014;-74
2022/12/18 08:30:57;;;;;;;0.00;0.00;;;;;;;2.93;80.49;100412.06;6213544;22;20098;-75
2022/12/18 08:33:23;;;;;;;0.00;0.00;;;;;;;2.87;80.27;100391.34;6210458;22;20383;-72
2022/12/18 08:35:49;;;;;;;0.00;0.00;;;;;;;2.88;80.54;100388.41;6238817;22;20011;-74
2022/12/18 08:38:14;;;;;;;0.00;0.00;;;;;;;2.88;81.45;100391.13;6212787;22;20011;-74
2022/12/18 08:40:39;;;;;;;0.00;0.00;;;;;;;2.84;81.20;100392.59;6263234;22;20015;-75
2022/12/18 08:45:49;;;;;;;0.00;0.00;;;;;;;2.94;81.73;100398.34;6216630;22;20018;-73
2022/12/18 08:48:14;;;;;;;0.00;0.00;;;;;;;2.93;81.55;100393.97;6216260;22;20007;-74
2022/12/18 08:50:40;;;;;;;0.00;0.00;;;;;;;2.99;82.16;100403.09;6209679;22;20026;-75
2022/12/18 08:53:06;;;;;;;0.00;0.00;;;;;;;3.05;81.90;100393.31;6241184;22;20023;-75
2022/12/18 08:55:31;;;;;;;0.00;0.00;;;;;;;3.12;81.90;100375.19;6237031;22;20314;-75
2022/12/18 08:57:57;;;;;;;0.00;0.00;;;;;;;3.16;81.60;100365.59;6214501;22;20012;-74
2022/12/18 09:00:22;;;;;;;0.00;0.00;;;;;;;3.22;81.55;100362.00;6240944;22;20116;-74
2022/12/18 09:02:47;;;;;;;0.00;0.00;;;;;;;3.17;82.13;100355.59;6188139;22;20007;-76
2022/12/18 09:05:13;;;;;;;0.00;0.00;;;;;;;3.22;82.18;100362.00;6216229;22;20019;-74
2022/12/18 09:07:38;;;;;;;0.00;0.00;;;;;;;3.32;81.71;100359.66;6213679;22;20431;-75
2022/12/18 09:10:04;;;;;;;0.10;0.10;;;;;;;3.36;82.10;100356.50;6236448;22;20126;-75
2022/12/18 09:12:30;;;;;;;0.00;0.00;;;;;;;3.36;81.94;100356.50;6215155;22;20640;-75
2022/12/18 09:14:56;;;;;;;0.00;0.00;;;;;;;3.32;81.77;100348.00;6235794;22;20035;-74
2022/12/18 09:17:21;;;;;;;0.10;0.10;;;;;;;3.35;82.49;100344.06;6239172;22;20019;-75
2022/12/18 09:19:47;;;;;;;0.00;0.00;;;;;;;3.41;82.40;100340.47;6209177;22;20000;-74
2022/12/18 09:22:12;;;;;;;0.00;0.00;;;;;;;3.51;82.29;100329.97;6213365;22;20023;-75
2022/12/18 09:24:38;;;;;;;0.08;0.08;;;;;;;3.58;81.91;100319.94;6240739;22;20011;-75
2022/12/18 09:27:03;;;;;;;0.00;0.00;;;;;;;3.71;82.18;100320.84;6235024;22;20011;-76
2022/12/18 09:29:28;;;;;;;0.08;0.08;;;;;;;3.74;82.12;100325.78;6240351;22;20011;-76
2022/12/18 09:31:54;;;;;;;0.00;0.00;;;;;;;3.75;81.97;100316.63;6211362;22;20000;-74
2022/12/18 09:34:21;;;;;;;0.00;0.00;;;;;;;3.81;81.70;100327.41;6240238;22;20338;-74
2022/12/18 09:36:47;;;;;;;0.10;0.10;;;;;;;3.95;82.40;100338.09;6185668;22;20430;-75
2022/12/18 09:39:12;;;;;;;0.00;0.00;;;;;;;3.89;81.86;100328.16;6262619;22;20119;-75
2022/12/18 09:41:57;;;;;;;0.10;0.10;;;;;;;3.80;81.50;100324.94;6184702;23;20009;-76
2022/12/18 09:44:54;;;;;;;0.00;0.00;;;;;;;3.77;82.10;100328.09;6208714;22;20004;-75
2022/12/18 09:47:34;;;;;;;0.00;0.00;;;;;;;3.75;82.55;100343.69;6230961;23;20326;-75
2022/12/18 09:50:03;;;;;;;0.00;0.00;;;;;;;3.66;82.48;100330.47;6214365;22;20631;-75
2022/12/18 09:52:45;;;;;;;0.08;0.08;;;;;;;3.63;82.86;100335.47;6204259;23;20004;-74
2022/12/18 09:55:28;;;;;;;0.00;0.00;;;;;;;3.61;84.22;100324.88;6237388;23;20390;-75
2022/12/18 09:58:01;;;;;;;0.00;0.00;;;;;;;3.65;83.64;100330.66;6209215;23;20312;-75
2022/12/18 10:00:31;;;;;;;0.00;0.00;;;;;;;3.63;84.56;100322.78;6233524;23;20061;-75
2022/12/18 10:03:03;;;;;;;0.00;0.00;;;;;;;3.64;84.59;100294.69;6206300;22;20907;-75
2022/12/18 10:05:46;;;;;;;0.00;0.00;;;;;;;3.75;84.53;100301.25;6234201;22;20015;-75
2022/12/18 10:08:22;;;;;;;0.00;0.00;;;;;;;3.73;84.64;100297.94;6204546;23;20087;-75
2022/12/18 10:10:55;;;;;;;0.00;0.00;;;;;;;3.86;85.10;100313.19;6204511;23;20004;-77
2022/12/18 10:13:35;;;;;;;0.10;0.10;;;;;;;3.92;84.36;100317.72;6229726;23;20032;-77
2022/12/18 10:16:13;;;;;;;0.00;0.00;;;;;;;4.06;84.59;100322.97;6206944;23;20028;-77
2022/12/18 10:18:41;;;;;;;0.00;0.00;;;;;;;4.10;84.14;100333.13;6202414;22;20012;-77
2022/12/18 10:21:18;;;;;;;0.00;0.00;;;;;;;4.05;83.57;100318.63;6203149;23;20116;-78
2022/12/18 10:24:22;;;;;;;0.10;0.10;;;;;;;3.93;84.15;100305.00;6202991;23;20744;-77
2022/12/18 10:26:47;;;;;;;0.10;0.10;;;;;;;3.96;84.29;100297.28;6238046;22;20015;-77
2022/12/18 10:29:15;;;;;;;0.00;0.00;;;;;;;4.06;85.12;100285.09;6181824;23;20008;-76
2022/12/18 10:31:41;;;;;;;0.00;0.00;;;;;;;4.10;84.44;100264.63;6205372;22;20000;-75
2022/12/18 10:34:13;;;;;;;0.00;0.00;;;;;;;4.25;83.68;100262.38;6152640;23;20338;-76
2022/12/18 10:36:39;;;;;;;0.00;0.00;;;;;;;4.34;84.50;100257.47;6203033;22;20438;-78
2022/12/18 10:39:18;;;;;;;0.00;0.00;;;;;;;4.43;83.48;100252.56;6201725;22;20007;-75
2022/12/18 10:41:44;;;;;;;0.00;0.00;;;;;;;4.31;83.55;100231.69;6229300;23;20068;-76
2022/12/18 10:44:11;;;;;;;0.00;0.00;;;;;;;4.45;84.71;100239.59;6178269;22;20012;-77
2022/12/18 10:46:37;;;;;;;0.00;0.00;;;;;;;4.44;84.07;100224.41;6204432;22;20441;-76
2022/12/18 10:49:04;;;;;;;0.00;0.00;;;;;;;4.43;84.30;100209.25;6176015;23;20012;-76
2022/12/18 10:51:33;;;;;;;0.00;0.00;;;;;;;4.54;84.04;100211.13;6182122;23;20431;-76
2022/12/18 10:54:16;;;;;;;0.00;0.00;;;;;;;4.66;84.46;100220.13;6202254;22;20011;-75
2022/12/18 10:56:42;;;;;;;0.00;0.00;;;;;;;4.67;83.99;100199.28;6204825;23;20004;-76
2022/12/18 10:59:11;;;;;;;0.10;0.10;;;;;;;4.63;84.46;100198.94;6203970;23;20015;-77
2022/12/18 11:01:57;;;;;;;0.03;0.03;;;;;;;4.52;84.17;100197.00;6202109;23;20004;-76
2022/12/18 11:04:30;;;;;;;0.00;0.00;;;;;;;4.50;84.52;100193.72;6203836;23;20008;-77
2022/12/18 11:07:02;;;;;;;0.00;0.00;;;;;;;4.46;85.58;100177.09;6204379;23;20035;-77
2022/12/18 11:09:40;;;;;;;0.00;0.00;;;;;;;4.48;85.20;100169.59;6202208;23;20052;-77
2022/12/18 11:12:17;;;;;;;0.00;0.00;;;;;;;4.54;85.53;100173.22;6181858;23;20009;-77
2022/12/18 11:14:47;;;;;;;0.00;0.00;;;;;;;4.54;85.33;100167.81;6234282;23;20039;-76
2022/12/18 11:17:21;;;;;;;0.00;0.00;;;;;;;4.60;86.25;100172.31;6232500;23;20012;-75
2022/12/18 11:19:54;;;;;;;0.00;0.00;;;;;;;4.54;86.35;100149.69;6207754;22;20008;-76
2022/12/18 11:22:27;;;;;;;0.00;0.00;;;;;;;4.60;87.38;100145.22;6234301;23;20012;-74
2022/12/18 11:24:58;;;;;;;0.00;0.00;;;;;;;4.65;86.90;100153.47;6230162;23;20367;-76
2022/12/18 11:27:24;;;;;;;0.00;0.00;;;;;;;4.67;88.06;100143.25;6205353;23;20000;-77
2022/12/18 11:29:51;;;;;;;0.08;0.08;;;;;;;4.64;88.26;100135.56;6201482;23;20008;-75
2022/12/18 11:32:26;;;;;;;0.00;0.00;;;;;;;4.66;88.75;100128.03;6181898;23;20035;-76
2022/12/18 11:34:55;;;;;;;;;;;;;;;4.80;87.97;100125.91;6202391;23;20020;-75
2022/12/18 11:37:21;;;;;;;0.00;0.00;;;;;;;4.79;88.29;100118.03;6235059;23;19903;-77
2022/12/18 11:39:56;;;;;;;0.00;0.00;;;;;;;4.70;87.66;100114.84;6178179;22;20043;-75
2022/12/18 11:42:32;;;;;;;0.00;0.00;;;;;;;4.65;88.74;100110.13;6208048;22;20100;-78
2022/12/18 11:45:06;;;;;;;0.00;0.00;;;;;;;4.55;89.69;100109.88;6205577;23;20013;-78
2022/12/18 11:47:46;;;;;;;0.00;0.00;;;;;;;4.47;89.64;100092.13;6237490;23;20028;-77
2022/12/18 11:50:59;;;;;;;0.00;0.00;;;;;;;4.47;91.61;100102.13;6206275;22;20095;-80
2022/12/18 11:53:53;;;;;;;;;;;;;;;;;;;;;
2022/12/18 11:56:29;;;;;;;;;;;;;;;;;;;;;
2022/12/18 11:59:32;;;;;;;0.05;0.05;;;;;;;4.40;93.57;100074.34;6234960;23;20381;-78
2022/12/18 12:02:03;;;;;;;0.00;0.00;;;;;;;4.32;93.91;100060.09;6235224;22;20326;-78
2022/12/18 12:05:20;;;;;;;0.00;0.00;;;;;;;4.26;95.58;100050.16;6202760;22;20316;-78
2022/12/18 12:08:17;;;;;;;;;;;;;;;;;;;;;
2022/12/18 12:14:49;;;;;;;;;;;;;;;;;;;;;